Terminal Aerodrome Forecast
Issued by NWS

Home | Current Version | Previous Version | Graphics & Text | Print | Product List | Glossary On
Versions: 1 2 3 4 5 6 7 8 9 10 11 12 13 14
000
FTUS43 KBIS 301018 AAA
TAFDIK
TAF AMD
KDIK 301018Z 3010/0106 14015G24KT P6SM VCSH SCT090 OVC120
     FM301300 15014G21KT P6SM BKN100
     FM010200 14012KT P6SM SCT200=

USA.gov is the U.S. government's official web portal to all federal, state and local government web resources and services.